Saint Marie, Montana
Current Conditions -  °F | °C
As of 7:53 PM on Friday 19 Dec 2014 (Local Time) from KGGW Reporting Station
Few Clouds Few Clouds  
Wind Chill: 18°   Ceiling: Unl
Heat Index: 28°   Visibility: 10mi
Dew Point: 24°   Wind: 12mph
Humidity: 85%   Direction: 100°E
Pressure: 29.83"   Gusts: NA
Location:  48.4°N, 106.55°W
Report Text: KGGW 200253Z AUTO 10010KT 10SM FEW090 M02/M04 A2983 RMK AO2 SLP138 T10221044 56007
Loading
Personal Weather Stations






























Interactive Weather Map New forecast layout! Learn more

10-Day Weather Forecast

Advertisements
Track Severe Weather on mobile